sim
Sign-in with your pilot id or email,
or register
Callsign
Passwort

Schedule Details

Flight Number: RYR8806 (1)
Departure: Milan Bergamo Il Caravaggio International Airport (LIME) at 05:55
Arrival: Fuerteventura Airport (GCFV) at 10:10
Route: Ryanair Passenger Schedule. Enter filed route here before submitting Pirep.

Weather Information
Getting current METAR information for LIME 172250Z 36004KT CAVOK 20/17 Q1016 NOSIG
Getting current METAR information for GCFV 172230Z AUTO 03004KT 7000 NSC 24/20 Q1014

Schedule Frequency

Route Map